sensor_id;sensor_type;location;lat;lon;timestamp;pressure;altitude;pressure_sealevel;temperature;humidity
71964;BME280;59834;52.124;5.422;2022-12-18T00:01:35;102943.00;;;-4.11;100.00
71964;BME280;59834;52.124;5.422;2022-12-18T00:04:04;102938.53;;;-4.18;100.00
71964;BME280;59834;52.124;5.422;2022-12-18T00:06:31;102931.50;;;-4.24;99.69
71964;BME280;59834;52.124;5.422;2022-12-18T00:08:59;102922.97;;;-4.24;100.00
71964;BME280;59834;52.124;5.422;2022-12-18T00:11:28;102917.03;;;-4.23;99.67
71964;BME280;59834;52.124;5.422;2022-12-18T00:13:57;102907.50;;;-4.29;99.57
71964;BME280;59834;52.124;5.422;2022-12-18T00:16:28;102910.75;;;-4.33;100.00
71964;BME280;59834;52.124;5.422;2022-12-18T00:18:58;102912.38;;;-4.37;100.00
71964;BME280;59834;52.124;5.422;2022-12-18T00:21:27;102912.22;;;-4.41;100.00
71964;BME280;59834;52.124;5.422;2022-12-18T00:23:54;102917.25;;;-4.44;99.62
71964;BME280;59834;52.124;5.422;2022-12-18T00:26:26;102926.75;;;-4.40;100.00
71964;BME280;59834;52.124;5.422;2022-12-18T00:28:54;102925.16;;;-4.37;100.00
71964;BME280;59834;52.124;5.422;2022-12-18T00:31:23;102928.53;;;-4.38;99.90
71964;BME280;59834;52.124;5.422;2022-12-18T00:33:50;102923.41;;;-4.38;100.00
71964;BME280;59834;52.124;5.422;2022-12-18T00:36:26;102912.53;;;-4.32;100.00
71964;BME280;59834;52.124;5.422;2022-12-18T00:38:54;102915.00;;;-4.34;100.00
71964;BME280;59834;52.124;5.422;2022-12-18T00:50:49;102910.41;;;-4.45;100.00
71964;BME280;59834;52.124;5.422;2022-12-18T00:53:17;102910.41;;;-4.45;100.00
71964;BME280;59834;52.124;5.422;2022-12-18T00:55:45;102915.44;;;-4.47;100.00
71964;BME280;59834;52.124;5.422;2022-12-18T00:58:13;102910.25;;;-4.50;100.00
71964;BME280;59834;52.124;5.422;2022-12-18T01:00:40;102916.28;;;-4.48;100.00
71964;BME280;59834;52.124;5.422;2022-12-18T01:03:07;102911.16;;;-4.48;100.00
71964;BME280;59834;52.124;5.422;2022-12-18T01:05:33;102901.81;;;-4.47;100.00
71964;BME280;59834;52.124;5.422;2022-12-18T01:08:00;102904.22;;;-4.52;100.00
71964;BME280;59834;52.124;5.422;2022-12-18T01:10:26;102897.25;;;-4.56;100.00
71964;BME280;59834;52.124;5.422;2022-12-18T01:12:53;102902.38;;;-4.56;100.00
71964;BME280;59834;52.124;5.422;2022-12-18T01:15:20;102898.00;;;-4.60;100.00
71964;BME280;59834;52.124;5.422;2022-12-18T01:17:46;102899.75;;;-4.59;100.00
71964;BME280;59834;52.124;5.422;2022-12-18T01:20:13;102906.69;;;-4.55;100.00
71964;BME280;59834;52.124;5.422;2022-12-18T01:22:40;102910.94;;;-4.56;100.00
71964;BME280;59834;52.124;5.422;2022-12-18T01:25:07;102907.47;;;-4.56;100.00
71964;BME280;59834;52.124;5.422;2022-12-18T01:27:34;102916.06;;;-4.54;100.00
71964;BME280;59834;52.124;5.422;2022-12-18T01:30:01;102927.91;;;-4.58;100.00
71964;BME280;59834;52.124;5.422;2022-12-18T01:32:30;102926.94;;;-4.61;100.00
71964;BME280;59834;52.124;5.422;2022-12-18T01:34:57;102932.88;;;-4.62;99.95
71964;BME280;59834;52.124;5.422;2022-12-18T01:37:23;102924.28;;;-4.64;100.00
71964;BME280;59834;52.124;5.422;2022-12-18T01:39:50;102926.00;;;-4.63;100.00
71964;BME280;59834;52.124;5.422;2022-12-18T01:42:18;102938.75;;;-4.65;100.00
71964;BME280;59834;52.124;5.422;2022-12-18T01:45:06;102929.16;;;-4.70;100.00
71964;BME280;59834;52.124;5.422;2022-12-18T01:47:37;102934.97;;;-4.76;100.00
71964;BME280;59834;52.124;5.422;2022-12-18T01:50:20;102934.75;;;-4.82;100.00
71964;BME280;59834;52.124;5.422;2022-12-18T01:52:58;102935.53;;;-4.85;100.00
71964;BME280;59834;52.124;5.422;2022-12-18T01:55:29;102934.47;;;-4.90;100.00
71964;BME280;59834;52.124;5.422;2022-12-18T01:57:58;102937.00;;;-4.91;100.00
71964;BME280;59834;52.124;5.422;2022-12-18T02:00:26;102929.88;;;-5.00;100.00
71964;BME280;59834;52.124;5.422;2022-12-18T02:02:53;102932.13;;;-5.09;100.00
71964;BME280;59834;52.124;5.422;2022-12-18T02:05:35;102938.84;;;-5.13;100.00
71964;BME280;59834;52.124;5.422;2022-12-18T02:08:30;102933.63;;;-5.16;100.00
71964;BME280;59834;52.124;5.422;2022-12-18T02:11:07;102938.66;;;-5.17;100.00
71964;BME280;59834;52.124;5.422;2022-12-18T02:13:48;102941.88;;;-5.23;100.00
71964;BME280;59834;52.124;5.422;2022-12-18T02:17:07;102936.47;;;-5.31;100.00
71964;BME280;59834;52.124;5.422;2022-12-18T02:28:02;102937.16;;;-5.36;100.00
71964;BME280;59834;52.124;5.422;2022-12-18T02:30:34;102946.47;;;-5.37;100.00
71964;BME280;59834;52.124;5.422;2022-12-18T02:33:05;102946.34;;;-5.40;100.00
71964;BME280;59834;52.124;5.422;2022-12-18T02:35:34;102941.19;;;-5.41;100.00
71964;BME280;59834;52.124;5.422;2022-12-18T02:38:03;102940.34;;;-5.42;100.00
71964;BME280;59834;52.124;5.422;2022-12-18T02:40:31;102939.41;;;-5.44;100.00
71964;BME280;59834;52.124;5.422;2022-12-18T02:43:12;102934.16;;;-5.49;100.00
71964;BME280;59834;52.124;5.422;2022-12-18T02:45:55;102931.44;;;-5.53;100.00
71964;BME280;59834;52.124;5.422;2022-12-18T02:48:29;102921.03;;;-5.58;100.00
71964;BME280;59834;52.124;5.422;2022-12-18T02:51:20;102916.78;;;-5.59;100.00
71964;BME280;59834;52.124;5.422;2022-12-18T02:54:08;102911.56;;;-5.62;100.00
71964;BME280;59834;52.124;5.422;2022-12-18T02:56:49;102923.25;;;-5.67;100.00
71964;BME280;59834;52.124;5.422;2022-12-18T02:59:28;102917.28;;;-5.68;100.00
71964;BME280;59834;52.124;5.422;2022-12-18T03:04:58;102919.06;;;-5.66;100.00
71964;BME280;59834;52.124;5.422;2022-12-18T03:07:35;102908.03;;;-5.65;100.00
71964;BME280;59834;52.124;5.422;2022-12-18T03:10:06;102902.72;;;-5.70;100.00
71964;BME280;59834;52.124;5.422;2022-12-18T03:12:37;102895.09;;;-5.70;100.00
71964;BME280;59834;52.124;5.422;2022-12-18T03:15:19;102902.56;;;-5.75;100.00
71964;BME280;59834;52.124;5.422;2022-12-18T03:17:52;102897.34;;;-5.78;100.00
71964;BME280;59834;52.124;5.422;2022-12-18T03:20:22;102904.00;;;-5.83;99.68
71964;BME280;59834;52.124;5.422;2022-12-18T03:22:57;102893.69;;;-5.86;100.00
71964;BME280;59834;52.124;5.422;2022-12-18T03:25:25;102898.69;;;-5.87;100.00
71964;BME280;59834;52.124;5.422;2022-12-18T03:27:55;102886.66;;;-5.92;100.00
71964;BME280;59834;52.124;5.422;2022-12-18T03:30:26;102885.78;;;-5.92;99.88
71964;BME280;59834;52.124;5.422;2022-12-18T03:33:51;102889.06;;;-5.96;100.00
71964;BME280;59834;52.124;5.422;2022-12-18T03:35:55;102883.63;;;-6.05;100.00
71964;BME280;59834;52.124;5.422;2022-12-18T03:38:22;102878.41;;;-6.08;100.00
71964;BME280;59834;52.124;5.422;2022-12-18T03:41:09;102880.84;;;-6.11;99.87
71964;BME280;59834;52.124;5.422;2022-12-18T03:49:32;102864.53;;;-6.17;99.97
71964;BME280;59834;52.124;5.422;2022-12-18T03:52:12;102868.72;;;-6.17;99.63
71964;BME280;59834;52.124;5.422;2022-12-18T03:54:42;102865.31;;;-6.18;99.98
71964;BME280;59834;52.124;5.422;2022-12-18T03:57:22;102867.75;;;-6.21;99.51
71964;BME280;59834;52.124;5.422;2022-12-18T03:59:55;102870.28;;;-6.21;99.66
71964;BME280;59834;52.124;5.422;2022-12-18T04:02:23;102865.19;;;-6.21;100.00
71964;BME280;59834;52.124;5.422;2022-12-18T04:04:58;102860.06;;;-6.22;99.78
71964;BME280;59834;52.124;5.422;2022-12-18T04:07:26;102857.41;;;-6.24;99.55
71964;BME280;59834;52.124;5.422;2022-12-18T04:09:55;102858.94;;;-6.29;99.30
71964;BME280;59834;52.124;5.422;2022-12-18T04:12:26;102860.56;;;-6.31;99.53
71964;BME280;59834;52.124;5.422;2022-12-18T04:14:52;102855.34;;;-6.34;99.28
71964;BME280;59834;52.124;5.422;2022-12-18T04:17:19;102849.44;;;-6.33;99.53
71964;BME280;59834;52.124;5.422;2022-12-18T04:19:46;102840.94;;;-6.33;99.57
71964;BME280;59834;52.124;5.422;2022-12-18T04:22:12;102835.78;;;-6.35;99.11
71964;BME280;59834;52.124;5.422;2022-12-18T04:24:39;102838.19;;;-6.38;99.30
71964;BME280;59834;52.124;5.422;2022-12-18T04:27:06;102832.97;;;-6.41;98.96
71964;BME280;59834;52.124;5.422;2022-12-18T04:29:32;102838.09;;;-6.41;99.14
71964;BME280;59834;52.124;5.422;2022-12-18T04:31:59;102831.22;;;-6.44;99.26
71964;BME280;59834;52.124;5.422;2022-12-18T04:34:26;102829.53;;;-6.43;98.98
71964;BME280;59834;52.124;5.422;2022-12-18T04:36:53;102835.50;;;-6.43;99.52
71964;BME280;59834;52.124;5.422;2022-12-18T04:39:19;102832.94;;;-6.43;99.28
71964;BME280;59834;52.124;5.422;2022-12-18T04:41:46;102843.94;;;-6.44;99.42
71964;BME280;59834;52.124;5.422;2022-12-18T04:44:13;102844.81;;;-6.43;99.53
71964;BME280;59834;52.124;5.422;2022-12-18T04:46:39;102849.78;;;-6.46;99.55
71964;BME280;59834;52.124;5.422;2022-12-18T04:49:06;102853.13;;;-6.47;99.23
71964;BME280;59834;52.124;5.422;2022-12-18T04:51:33;102859.97;;;-6.46;99.40
71964;BME280;59834;52.124;5.422;2022-12-18T04:53:59;102868.31;;;-6.50;99.21
71964;BME280;59834;52.124;5.422;2022-12-18T04:56:26;102866.56;;;-6.51;99.20
71964;BME280;59834;52.124;5.422;2022-12-18T04:58:52;102875.03;;;-6.52;99.14
71964;BME280;59834;52.124;5.422;2022-12-18T05:01:19;102874.91;;;-6.55;99.00
71964;BME280;59834;52.124;5.422;2022-12-18T05:03:46;102875.75;;;-6.55;98.74
71964;BME280;59834;52.124;5.422;2022-12-18T05:06:12;102875.75;;;-6.55;99.19
71964;BME280;59834;52.124;5.422;2022-12-18T05:08:39;102884.34;;;-6.53;98.94
71964;BME280;59834;52.124;5.422;2022-12-18T05:11:12;102892.03;;;-6.51;99.11
71964;BME280;59834;52.124;5.422;2022-12-18T05:13:42;102886.06;;;-6.52;98.78
71964;BME280;59834;52.124;5.422;2022-12-18T05:16:08;102891.91;;;-6.54;99.02
71964;BME280;59834;52.124;5.422;2022-12-18T05:18:35;102889.25;;;-6.57;99.29
71964;BME280;59834;52.124;5.422;2022-12-18T05:21:03;102886.66;;;-6.59;99.15
71964;BME280;59834;52.124;5.422;2022-12-18T05:23:29;102895.16;;;-6.58;98.56
71964;BME280;59834;52.124;5.422;2022-12-18T05:25:58;102896.84;;;-6.59;99.76
71964;BME280;59834;52.124;5.422;2022-12-18T05:28:28;102895.91;;;-6.61;99.20
71964;BME280;59834;52.124;5.422;2022-12-18T05:30:58;102911.06;;;-6.64;99.05
71964;BME280;59834;52.124;5.422;2022-12-18T05:33:27;102922.91;;;-6.65;98.82
71964;BME280;59834;52.124;5.422;2022-12-18T05:35:57;102920.50;;;-6.61;99.24
71964;BME280;59834;52.124;5.422;2022-12-18T05:38:25;102915.50;;;-6.60;98.76
71964;BME280;59834;52.124;5.422;2022-12-18T05:40:53;102912.84;;;-6.61;98.75
71964;BME280;59834;52.124;5.422;2022-12-18T05:43:20;102898.41;;;-6.62;98.79
71964;BME280;59834;52.124;5.422;2022-12-18T05:45:51;102890.69;;;-6.64;98.39
71964;BME280;59834;52.124;5.422;2022-12-18T05:48:18;102884.72;;;-6.65;98.70
71964;BME280;59834;52.124;5.422;2022-12-18T05:50:46;102888.13;;;-6.64;98.83
71964;BME280;59834;52.124;5.422;2022-12-18T05:53:15;102882.16;;;-6.65;98.28
71964;BME280;59834;52.124;5.422;2022-12-18T05:55:43;102879.63;;;-6.65;98.35
71964;BME280;59834;52.124;5.422;2022-12-18T05:58:11;102873.63;;;-6.67;98.64
71964;BME280;59834;52.124;5.422;2022-12-18T06:00:41;102867.75;;;-6.64;98.22
71964;BME280;59834;52.124;5.422;2022-12-18T06:03:09;102870.31;;;-6.64;98.43
71964;BME280;59834;52.124;5.422;2022-12-18T06:05:41;102870.94;;;-6.70;98.88
71964;BME280;59834;52.124;5.422;2022-12-18T06:08:08;102871.63;;;-6.74;98.58
71964;BME280;59834;52.124;5.422;2022-12-18T06:10:35;102874.06;;;-6.77;98.54
71964;BME280;59834;52.124;5.422;2022-12-18T06:13:01;102868.03;;;-6.79;98.52
71964;BME280;59834;52.124;5.422;2022-12-18T06:15:28;102867.06;;;-6.81;98.55
71964;BME280;59834;52.124;5.422;2022-12-18T06:17:54;102858.66;;;-6.80;98.60
71964;BME280;59834;52.124;5.422;2022-12-18T06:20:21;102852.69;;;-6.80;98.65
71964;BME280;59834;52.124;5.422;2022-12-18T06:22:48;102846.63;;;-6.84;98.44
71964;BME280;59834;52.124;5.422;2022-12-18T06:25:15;102850.03;;;-6.83;98.51
71964;BME280;59834;52.124;5.422;2022-12-18T06:27:41;102855.91;;;-6.84;98.24
71964;BME280;59834;52.124;5.422;2022-12-18T06:30:09;102844.94;;;-6.83;98.80
71964;BME280;59834;52.124;5.422;2022-12-18T06:32:36;102850.81;;;-6.84;99.19
71964;BME280;59834;52.124;5.422;2022-12-18T06:35:03;102846.50;;;-6.87;98.33
71964;BME280;59834;52.124;5.422;2022-12-18T06:37:31;102836.22;;;-6.89;98.71
71964;BME280;59834;52.124;5.422;2022-12-18T06:39:57;102840.28;;;-6.94;98.67
71964;BME280;59834;52.124;5.422;2022-12-18T06:42:24;102839.28;;;-6.97;98.59
71964;BME280;59834;52.124;5.422;2022-12-18T06:44:51;102836.66;;;-6.99;98.76
71964;BME280;59834;52.124;5.422;2022-12-18T06:47:18;102834.13;;;-6.99;98.87
71964;BME280;59834;52.124;5.422;2022-12-18T06:49:44;102828.22;;;-6.98;98.76
71964;BME280;59834;52.124;5.422;2022-12-18T06:52:11;102814.69;;;-6.97;98.57
71964;BME280;59834;52.124;5.422;2022-12-18T06:54:37;102821.38;;;-6.99;98.59
71964;BME280;59834;52.124;5.422;2022-12-18T06:57:04;102820.41;;;-7.02;98.72
71964;BME280;59834;52.124;5.422;2022-12-18T06:59:30;102815.31;;;-7.02;98.67
71964;BME280;59834;52.124;5.422;2022-12-18T07:01:57;102811.81;;;-7.04;98.66
71964;BME280;59834;52.124;5.422;2022-12-18T07:04:28;102807.63;;;-7.04;98.35
71964;BME280;59834;52.124;5.422;2022-12-18T07:06:56;102801.53;;;-7.07;98.94
71964;BME280;59834;52.124;5.422;2022-12-18T07:09:23;102809.22;;;-7.06;98.41
71964;BME280;59834;52.124;5.422;2022-12-18T07:11:49;102810.91;;;-7.06;97.76
71964;BME280;59834;52.124;5.422;2022-12-18T07:14:16;102803.28;;;-7.06;98.38
71964;BME280;59834;52.124;5.422;2022-12-18T07:16:42;102800.78;;;-7.05;98.52
71964;BME280;59834;52.124;5.422;2022-12-18T07:19:09;102792.88;;;-7.11;98.62
71964;BME280;59834;52.124;5.422;2022-12-18T07:21:36;102782.66;;;-7.13;98.60
71964;BME280;59834;52.124;5.422;2022-12-18T07:24:02;102804.63;;;-7.15;98.37
71964;BME280;59834;52.124;5.422;2022-12-18T07:26:29;102796.19;;;-7.14;98.05
71964;BME280;59834;52.124;5.422;2022-12-18T07:28:57;102797.00;;;-7.15;98.56
71964;BME280;59834;52.124;5.422;2022-12-18T07:31:25;102788.50;;;-7.15;98.03
71964;BME280;59834;52.124;5.422;2022-12-18T07:33:52;102782.63;;;-7.14;98.16
71964;BME280;59834;52.124;5.422;2022-12-18T07:36:20;102772.31;;;-7.17;98.24
71964;BME280;59834;52.124;5.422;2022-12-18T07:38:48;102763.91;;;-7.15;98.64
71964;BME280;59834;52.124;5.422;2022-12-18T07:41:15;102775.03;;;-7.13;98.22
71964;BME280;59834;52.124;5.422;2022-12-18T07:43:42;102775.97;;;-7.10;98.52
71964;BME280;59834;52.124;5.422;2022-12-18T07:46:11;102766.44;;;-7.15;98.55
71964;BME280;59834;52.124;5.422;2022-12-18T07:48:41;102755.41;;;-7.15;98.33
71964;BME280;59834;52.124;5.422;2022-12-18T07:51:09;102755.47;;;-7.14;98.65
71964;BME280;59834;52.124;5.422;2022-12-18T07:53:36;102757.22;;;-7.13;98.38
71964;BME280;59834;52.124;5.422;2022-12-18T07:56:06;102742.81;;;-7.12;98.66
71964;BME280;59834;52.124;5.422;2022-12-18T07:58:53;102743.75;;;-7.10;98.15
71964;BME280;59834;52.124;5.422;2022-12-18T08:01:20;102750.19;;;-6.97;98.47
71964;BME280;59834;52.124;5.422;2022-12-18T08:03:47;102753.06;;;-6.88;98.49
71964;BME280;59834;52.124;5.422;2022-12-18T08:06:15;102746.38;;;-6.86;97.95
71964;BME280;59834;52.124;5.422;2022-12-18T08:08:41;102741.31;;;-6.84;97.35
71964;BME280;59834;52.124;5.422;2022-12-18T08:11:08;102732.19;;;-6.79;98.25
71964;BME280;59834;52.124;5.422;2022-12-18T08:13:35;102726.41;;;-6.75;97.52
71964;BME280;59834;52.124;5.422;2022-12-18T08:16:06;102727.34;;;-6.73;97.26
71964;BME280;59834;52.124;5.422;2022-12-18T08:18:36;102725.72;;;-6.71;97.59
71964;BME280;59834;52.124;5.422;2022-12-18T08:21:20;102733.22;;;-6.74;97.07
71964;BME280;59834;52.124;5.422;2022-12-18T08:23:50;102725.53;;;-6.76;97.67
71964;BME280;59834;52.124;5.422;2022-12-18T08:26:17;102734.44;;;-6.65;97.93
71964;BME280;59834;52.124;5.422;2022-12-18T08:28:45;102744.75;;;-6.61;97.64
71964;BME280;59834;52.124;5.422;2022-12-18T08:31:13;102756.03;;;-6.55;97.99
71964;BME280;59834;52.124;5.422;2022-12-18T08:33:41;102762.94;;;-6.52;97.43
71964;BME280;59834;52.124;5.422;2022-12-18T08:36:12;102767.09;;;-6.54;97.52
71964;BME280;59834;52.124;5.422;2022-12-18T08:38:39;102761.94;;;-6.56;97.48
71964;BME280;59834;52.124;5.422;2022-12-18T08:41:08;102752.63;;;-6.55;97.58
71964;BME280;59834;52.124;5.422;2022-12-18T08:43:37;102761.41;;;-6.47;97.90
71964;BME280;59834;52.124;5.422;2022-12-18T08:46:25;102742.91;;;-6.43;98.13
71964;BME280;59834;52.124;5.422;2022-12-18T08:48:54;102744.84;;;-6.36;97.65
71964;BME280;59834;52.124;5.422;2022-12-18T08:51:25;102749.22;;;-6.33;97.91
71964;BME280;59834;52.124;5.422;2022-12-18T08:53:51;102747.75;;;-6.27;97.75
71964;BME280;59834;52.124;5.422;2022-12-18T08:56:18;102740.31;;;-6.21;98.12
71964;BME280;59834;52.124;5.422;2022-12-18T08:58:46;102737.06;;;-6.17;97.70
71964;BME280;59834;52.124;5.422;2022-12-18T09:01:13;102748.53;;;-6.04;98.16
71964;BME280;59834;52.124;5.422;2022-12-18T09:03:41;102764.19;;;-5.95;98.33
71964;BME280;59834;52.124;5.422;2022-12-18T09:06:14;102768.59;;;-5.89;97.69
71964;BME280;59834;52.124;5.422;2022-12-18T09:08:43;102756.72;;;-5.88;97.71
71964;BME280;59834;52.124;5.422;2022-12-18T09:11:22;102746.75;;;-5.81;97.60
71964;BME280;59834;52.124;5.422;2022-12-18T09:13:50;102743.59;;;-5.74;97.54
71964;BME280;59834;52.124;5.422;2022-12-18T09:16:18;102750.56;;;-5.70;97.35
71964;BME280;59834;52.124;5.422;2022-12-18T09:18:46;102745.94;;;-5.56;98.07
71964;BME280;59834;52.124;5.422;2022-12-18T09:21:15;102738.56;;;-5.47;97.68
71964;BME280;59834;52.124;5.422;2022-12-18T09:23:43;102737.03;;;-5.41;97.39
71964;BME280;59834;52.124;5.422;2022-12-18T09:26:11;102749.84;;;-5.40;97.89
71964;BME280;59834;52.124;5.422;2022-12-18T09:28:37;102740.41;;;-5.42;97.11
71964;BME280;59834;52.124;5.422;2022-12-18T09:31:07;102745.63;;;-5.39;97.31
71964;BME280;59834;52.124;5.422;2022-12-18T09:33:38;102741.69;;;-5.30;97.26
71964;BME280;59834;52.124;5.422;2022-12-18T09:36:08;102734.94;;;-5.28;97.68
71964;BME280;59834;52.124;5.422;2022-12-18T09:38:36;102726.53;;;-5.24;97.68
71964;BME280;59834;52.124;5.422;2022-12-18T09:41:32;102712.34;;;-5.15;97.90
71964;BME280;59834;52.124;5.422;2022-12-18T09:44:16;102715.00;;;-5.12;97.08
71964;BME280;59834;52.124;5.422;2022-12-18T09:46:52;102707.44;;;-5.09;97.26
71964;BME280;59834;52.124;5.422;2022-12-18T09:49:24;102711.16;;;-5.00;97.80
71964;BME280;59834;52.124;5.422;2022-12-18T09:51:57;102709.72;;;-4.90;97.60
71964;BME280;59834;52.124;5.422;2022-12-18T09:54:54;102694.63;;;-4.82;97.84
71964;BME280;59834;52.124;5.422;2022-12-18T09:57:31;102688.81;;;-4.77;97.72
71964;BME280;59834;52.124;5.422;2022-12-18T10:00:16;102695.94;;;-4.66;97.59
71964;BME280;59834;52.124;5.422;2022-12-18T10:02:46;102696.97;;;-4.60;97.79
71964;BME280;59834;52.124;5.422;2022-12-18T10:05:29;102686.16;;;-4.51;97.29
71964;BME280;59834;52.124;5.422;2022-12-18T10:08:34;102692.44;;;-4.40;97.81
71964;BME280;59834;52.124;5.422;2022-12-18T10:27:14;102682.53;;;-3.96;97.23
71964;BME280;59834;52.124;5.422;2022-12-18T10:29:45;102676.69;;;-3.92;97.35
71964;BME280;59834;52.124;5.422;2022-12-18T10:32:21;102671.66;;;-3.87;96.27
71964;BME280;59834;52.124;5.422;2022-12-18T10:34:50;102667.56;;;-3.81;96.36
71964;BME280;59834;52.124;5.422;2022-12-18T10:37:27;102657.34;;;-3.81;96.26
71964;BME280;59834;52.124;5.422;2022-12-18T10:40:11;102653.16;;;-3.77;96.62
71964;BME280;59834;52.124;5.422;2022-12-18T10:43:04;102668.69;;;-3.69;96.46
71964;BME280;59834;52.124;5.422;2022-12-18T10:45:34;102662.00;;;-3.64;96.80
71964;BME280;59834;52.124;5.422;2022-12-18T10:48:01;102648.44;;;-3.60;96.34
71964;BME280;59834;52.124;5.422;2022-12-18T10:50:33;102646.00;;;-3.56;96.77
71964;BME280;59834;52.124;5.422;2022-12-18T10:53:27;102644.41;;;-3.52;95.96
71964;BME280;59834;52.124;5.422;2022-12-18T10:55:55;102643.59;;;-3.49;96.52
71964;BME280;59834;52.124;5.422;2022-12-18T10:58:30;102644.50;;;-3.46;95.80
71964;BME280;59834;52.124;5.422;2022-12-18T11:01:14;102639.53;;;-3.40;96.15
71964;BME280;59834;52.124;5.422;2022-12-18T11:03:58;102632.00;;;-3.34;96.02
71964;BME280;59834;52.124;5.422;2022-12-18T11:06:28;102624.31;;;-3.34;95.74
71964;BME280;59834;52.124;5.422;2022-12-18T11:09:09;102619.28;;;-3.30;94.95
71964;BME280;59834;52.124;5.422;2022-12-18T11:11:50;102617.63;;;-3.28;95.04
71964;BME280;59834;52.124;5.422;2022-12-18T11:14:31;102604.84;;;-3.27;95.87
71964;BME280;59834;52.124;5.422;2022-12-18T11:17:00;102608.38;;;-3.22;95.55
71964;BME280;59834;52.124;5.422;2022-12-18T11:20:01;102608.50;;;-3.16;94.65
71964;BME280;59834;52.124;5.422;2022-12-18T11:22:32;102606.91;;;-3.09;95.09
71964;BME280;59834;52.124;5.422;2022-12-18T11:28:25;102584.91;;;-3.01;94.98
71964;BME280;59834;52.124;5.422;2022-12-18T11:34:19;102582.53;;;-2.92;93.86
71964;BME280;59834;52.124;5.422;2022-12-18T11:37:00;102594.59;;;-2.86;93.83
71964;BME280;59834;52.124;5.422;2022-12-18T11:39:36;102594.69;;;-2.81;92.78
71964;BME280;59834;52.124;5.422;2022-12-18T11:42:18;102594.78;;;-2.75;92.70
71964;BME280;59834;52.124;5.422;2022-12-18T11:44:57;102591.41;;;-2.74;93.37
71964;BME280;59834;52.124;5.422;2022-12-18T11:50:49;102571.84;;;-2.69;93.33
71964;BME280;59834;52.124;5.422;2022-12-18T11:53:24;102578.81;;;-2.64;92.22
71964;BME280;59834;52.124;5.422;2022-12-18T11:56:22;102573.78;;;-2.57;92.09
71964;BME280;59834;52.124;5.422;2022-12-18T12:08:44;102542.31;;;-2.50;92.33
71964;BME280;59834;52.124;5.422;2022-12-18T12:11:48;102529.44;;;-2.52;92.30
71964;BME280;59834;52.124;5.422;2022-12-18T12:17:45;102519.22;;;-2.50;92.37
71964;BME280;59834;52.124;5.422;2022-12-18T12:20:23;102520.13;;;-2.47;92.19
71964;BME280;59834;52.124;5.422;2022-12-18T12:23:03;102510.78;;;-2.43;91.23
71964;BME280;59834;52.124;5.422;2022-12-18T12:34:16;102505.00;;;-2.31;91.27
71964;BME280;59834;52.124;5.422;2022-12-18T12:37:01;102502.47;;;-2.28;90.42
71964;BME280;59834;52.124;5.422;2022-12-18T12:39:36;102501.66;;;-2.27;90.45
71964;BME280;59834;52.124;5.422;2022-12-18T12:42:05;102497.44;;;-2.24;90.31
71964;BME280;59834;52.124;5.422;2022-12-18T12:44:58;102495.75;;;-2.22;89.88
71964;BME280;59834;52.124;5.422;2022-12-18T12:47:31;102479.53;;;-2.21;90.52
71964;BME280;59834;52.124;5.422;2022-12-18T12:50:02;102472.69;;;-2.20;89.95
71964;BME280;59834;52.124;5.422;2022-12-18T12:52:37;102474.41;;;-2.19;90.86
71964;BME280;59834;52.124;5.422;2022-12-18T12:55:16;102476.13;;;-2.18;90.31
71964;BME280;59834;52.124;5.422;2022-12-18T13:00:49;102466.84;;;-2.11;90.41
71964;BME280;59834;52.124;5.422;2022-12-18T13:05:58;102465.16;;;-2.09;90.00
71964;BME280;59834;52.124;5.422;2022-12-18T13:08:29;102460.88;;;-2.09;90.16
71964;BME280;59834;52.124;5.422;2022-12-18T13:11:02;102458.31;;;-2.09;89.43
71964;BME280;59834;52.124;5.422;2022-12-18T13:13:55;102466.06;;;-2.06;89.41
71964;BME280;59834;52.124;5.422;2022-12-18T13:16:25;102466.13;;;-2.04;89.71
71964;BME280;59834;52.124;5.422;2022-12-18T13:18:57;102466.94;;;-2.05;89.22
71964;BME280;59834;52.124;5.422;2022-12-18T13:21:32;102465.22;;;-2.05;88.86
71964;BME280;59834;52.124;5.422;2022-12-18T13:24:35;102468.69;;;-2.01;89.01
71964;BME280;59834;52.124;5.422;2022-12-18T13:30:46;102454.19;;;-2.01;90.30
71964;BME280;59834;52.124;5.422;2022-12-18T13:41:01;102438.84;;;-1.98;90.12
71964;BME280;59834;52.124;5.422;2022-12-18T13:43:49;102439.69;;;-1.97;89.23
71964;BME280;59834;52.124;5.422;2022-12-18T13:49:06;102423.44;;;-1.95;89.95
71964;BME280;59834;52.124;5.422;2022-12-18T13:51:54;102419.16;;;-1.97;89.29
71964;BME280;59834;52.124;5.422;2022-12-18T13:54:39;102408.03;;;-1.98;89.71
71964;BME280;59834;52.124;5.422;2022-12-18T13:59:51;102402.91;;;-1.96;88.89
71964;BME280;59834;52.124;5.422;2022-12-18T14:02:28;102408.94;;;-1.94;89.07
71964;BME280;59834;52.124;5.422;2022-12-18T14:04:55;102402.09;;;-1.94;89.54
71964;BME280;59834;52.124;5.422;2022-12-18T14:07:25;102396.97;;;-1.92;89.52
71964;BME280;59834;52.124;5.422;2022-12-18T14:09:58;102390.97;;;-1.93;89.03
71964;BME280;59834;52.124;5.422;2022-12-18T14:12:50;102385.88;;;-1.91;89.03
71964;BME280;59834;52.124;5.422;2022-12-18T14:18:09;102374.78;;;-1.88;88.60
71964;BME280;59834;52.124;5.422;2022-12-18T14:20:43;102373.09;;;-1.86;87.36
71964;BME280;59834;52.124;5.422;2022-12-18T14:23:47;102372.25;;;-1.85;87.27
71964;BME280;59834;52.124;5.422;2022-12-18T14:26:26;102368.88;;;-1.84;87.00
71964;BME280;59834;52.124;5.422;2022-12-18T14:28:57;102362.03;;;-1.82;86.93
71964;BME280;59834;52.124;5.422;2022-12-18T14:31:26;102357.75;;;-1.83;87.82
71964;BME280;59834;52.124;5.422;2022-12-18T14:33:53;102356.03;;;-1.81;87.26
71964;BME280;59834;52.124;5.422;2022-12-18T14:36:22;102356.94;;;-1.79;86.45
71964;BME280;59834;52.124;5.422;2022-12-18T14:38:56;102356.94;;;-1.79;86.54
71964;BME280;59834;52.124;5.422;2022-12-18T14:41:24;102348.38;;;-1.80;86.65
71964;BME280;59834;52.124;5.422;2022-12-18T14:43:53;102353.50;;;-1.78;87.06
71964;BME280;59834;52.124;5.422;2022-12-18T14:46:36;102357.78;;;-1.79;87.81
71964;BME280;59834;52.124;5.422;2022-12-18T14:49:14;102354.38;;;-1.81;87.50
71964;BME280;59834;52.124;5.422;2022-12-18T14:51:49;102332.94;;;-1.81;87.73
71964;BME280;59834;52.124;5.422;2022-12-18T14:54:19;102332.94;;;-1.81;87.14